createdAt,value
2022-07-26T00:01:02.274Z,1.38
2022-07-26T00:03:40.473Z,2.00
2022-07-26T00:06:19.248Z,1.52
2022-07-26T00:08:57.477Z,1.30
2022-07-26T00:11:35.735Z,1.33
2022-07-26T00:14:14.273Z,1.17
2022-07-26T00:16:53.044Z,1.60
2022-07-26T00:19:31.483Z,1.33
2022-07-26T00:22:28.368Z,1.60
2022-07-26T00:25:09.756Z,1.30
2022-07-26T00:27:47.992Z,1.15
2022-07-26T00:30:26.181Z,1.38
2022-07-26T00:33:04.712Z,1.25
2022-07-26T00:35:42.996Z,1.60
2022-07-26T00:38:21.129Z,1.38
2022-07-26T00:40:59.612Z,1.60
2022-07-26T00:43:37.936Z,1.20
2022-07-26T00:46:16.138Z,1.08
2022-07-26T00:48:54.555Z,1.83
2022-07-26T00:51:33.136Z,1.42
2022-07-26T00:54:11.404Z,1.48
2022-07-26T00:56:53.368Z,1.80
2022-07-26T00:59:33.494Z,1.60
2022-07-26T01:02:12.330Z,1.15
2022-07-26T01:04:50.961Z,1.35
2022-07-26T01:07:30.366Z,1.35
2022-07-26T01:10:12.824Z,1.30
2022-07-26T01:12:51.643Z,1.23
2022-07-26T01:15:29.793Z,1.30
2022-07-26T01:18:08.053Z,1.30
2022-07-26T01:20:47.780Z,1.30
2022-07-26T01:23:25.948Z,1.57
2022-07-26T01:26:05.529Z,1.48
2022-07-26T01:28:45.019Z,1.40
2022-07-26T01:31:23.515Z,1.35
2022-07-26T01:34:01.814Z,1.45
2022-07-26T01:36:40.132Z,1.88
2022-07-26T01:39:18.334Z,1.20
2022-07-26T01:41:57.038Z,1.30
2022-07-26T01:44:35.200Z,1.38
2022-07-26T01:47:13.330Z,1.25
2022-07-26T01:49:51.457Z,1.27
2022-07-26T01:52:29.737Z,1.52
2022-07-26T01:55:08.280Z,1.50
2022-07-26T01:57:47.445Z,1.50
2022-07-26T02:00:25.868Z,1.42
2022-07-26T02:03:04.323Z,1.25
2022-07-26T02:05:42.582Z,1.38
2022-07-26T02:08:20.748Z,1.40
2022-07-26T02:11:03.559Z,1.42
2022-07-26T02:13:42.797Z,1.60
2022-07-26T02:16:21.063Z,1.60
2022-07-26T02:18:59.313Z,1.30
2022-07-26T02:21:37.613Z,1.35
2022-07-26T02:24:15.814Z,1.27
2022-07-26T02:26:53.974Z,1.50
2022-07-26T02:29:32.237Z,1.23
2022-07-26T02:32:11.376Z,1.20
2022-07-26T02:34:49.519Z,1.50
2022-07-26T02:37:27.607Z,1.60
2022-07-26T02:40:06.758Z,1.50
2022-07-26T02:42:43.693Z,1.17
2022-07-26T02:45:21.969Z,1.58
2022-07-26T02:48:00.481Z,1.52
2022-07-26T02:50:39.104Z,1.35
2022-07-26T02:53:17.557Z,1.33
2022-07-26T02:55:55.748Z,1.35
2022-07-26T02:58:33.949Z,1.25
2022-07-26T03:01:12.650Z,1.65
2022-07-26T03:03:51.734Z,1.40
2022-07-26T03:06:29.849Z,1.30
2022-07-26T03:09:07.977Z,1.17
2022-07-26T03:11:46.045Z,1.30
2022-07-26T03:14:24.206Z,1.35
2022-07-26T03:17:02.332Z,1.35
2022-07-26T03:19:40.490Z,1.52
2022-07-26T03:22:19.320Z,1.88
2022-07-26T03:24:57.584Z,1.27
2022-07-26T03:27:36.332Z,1.27
2022-07-26T03:30:15.296Z,1.30
2022-07-26T03:32:53.660Z,1.35
2022-07-26T03:35:36.704Z,1.08
2022-07-26T03:38:15.186Z,1.15
2022-07-26T03:40:53.641Z,1.20
2022-07-26T03:43:31.765Z,1.15
2022-07-26T03:46:14.544Z,1.30
2022-07-26T03:48:52.762Z,1.08
2022-07-26T03:51:30.930Z,1.15
2022-07-26T03:54:09.559Z,1.58
2022-07-26T03:56:48.191Z,1.40
2022-07-26T03:59:26.310Z,1.08
2022-07-26T04:02:04.850Z,1.20
2022-07-26T04:04:43.336Z,1.35
2022-07-26T04:07:21.592Z,0.90
2022-07-26T04:09:59.683Z,1.40
2022-07-26T04:12:37.883Z,1.30
2022-07-26T04:15:17.344Z,1.70
2022-07-26T04:17:55.464Z,1.25
2022-07-26T04:20:33.576Z,1.10
2022-07-26T04:23:12.645Z,1.23
2022-07-26T04:25:50.851Z,1.33
2022-07-26T04:28:29.410Z,1.23
2022-07-26T04:31:08.444Z,1.33
2022-07-26T04:33:52.481Z,1.08
2022-07-26T04:36:30.761Z,1.17
2022-07-26T04:39:08.900Z,1.35
2022-07-26T04:41:47.004Z,1.20
2022-07-26T04:44:25.102Z,1.50
2022-07-26T04:47:03.576Z,1.50
2022-07-26T04:49:41.764Z,1.17
2022-07-26T04:52:19.892Z,1.00
2022-07-26T04:54:58.022Z,0.93
2022-07-26T04:57:36.556Z,1.27
2022-07-26T05:00:22.797Z,1.00
2022-07-26T05:03:03.571Z,1.08
2022-07-26T05:05:41.817Z,1.20
2022-07-26T05:08:20.592Z,0.95
2022-07-26T05:10:58.950Z,1.48
2022-07-26T05:13:37.181Z,1.17
2022-07-26T05:16:15.258Z,1.08
2022-07-26T05:18:53.692Z,1.08
2022-07-26T05:21:31.865Z,0.95
2022-07-26T05:24:10.490Z,1.13
2022-07-26T05:26:48.937Z,1.00
2022-07-26T05:29:27.151Z,0.98
2022-07-26T05:32:06.035Z,1.20
2022-07-26T05:34:44.181Z,1.35
2022-07-26T05:37:22.251Z,0.95
2022-07-26T05:40:00.575Z,0.80
2022-07-26T05:42:38.929Z,0.90
2022-07-26T05:45:17.287Z,1.30
2022-07-26T05:47:55.892Z,1.13
2022-07-26T05:50:34.160Z,0.93
2022-07-26T05:53:12.337Z,1.08
2022-07-26T05:55:50.523Z,0.90
2022-07-26T05:58:28.827Z,1.05
2022-07-26T06:01:07.301Z,1.10
2022-07-26T06:03:45.501Z,1.10
2022-07-26T06:06:23.655Z,1.20
2022-07-26T06:09:01.897Z,0.90
2022-07-26T06:11:40.038Z,1.05
2022-07-26T06:14:18.506Z,1.05
2022-07-26T06:16:56.754Z,1.67
2022-07-26T06:19:35.322Z,1.20
2022-07-26T06:22:13.451Z,0.93
2022-07-26T06:24:51.607Z,0.75
2022-07-26T06:27:31.949Z,0.98
2022-07-26T06:30:11.083Z,1.40
2022-07-26T06:32:49.241Z,1.33
2022-07-26T06:35:32.266Z,1.17
2022-07-26T06:38:10.385Z,1.02
2022-07-26T06:40:48.530Z,1.05
2022-07-26T06:43:26.633Z,1.45
2022-07-26T06:46:04.992Z,1.45
2022-07-26T06:48:47.237Z,1.75
2022-07-26T06:51:25.891Z,2.58
2022-07-26T06:54:05.962Z,1.45
2022-07-26T06:56:44.755Z,1.20
2022-07-26T06:59:22.854Z,0.98
2022-07-26T07:02:01.959Z,1.02
2022-07-26T07:04:40.134Z,1.25
2022-07-26T07:07:18.416Z,1.20
2022-07-26T07:09:56.625Z,1.00
2022-07-26T07:12:35.138Z,1.05
2022-07-26T07:15:13.380Z,1.10
2022-07-26T07:17:52.402Z,0.90
2022-07-26T07:20:30.712Z,0.90
2022-07-26T07:23:09.055Z,1.20
2022-07-26T07:25:47.174Z,1.15
2022-07-26T07:28:27.081Z,1.02
2022-07-26T07:31:06.637Z,1.27
2022-07-26T07:33:53.457Z,1.10
2022-07-26T07:36:32.059Z,1.05
2022-07-26T07:39:15.669Z,0.93
2022-07-26T07:41:55.845Z,1.00
2022-07-26T07:44:34.071Z,1.05
2022-07-26T07:47:12.383Z,0.90
2022-07-26T07:49:50.510Z,1.00
2022-07-26T07:52:28.772Z,0.93
2022-07-26T07:55:39.912Z,1.08
2022-07-26T07:58:06.193Z,0.98
2022-07-26T08:00:44.305Z,1.38
2022-07-26T08:03:23.149Z,0.80
2022-07-26T08:06:02.527Z,0.80
2022-07-26T08:08:40.633Z,0.90
2022-07-26T08:13:59.445Z,0.75
2022-07-26T08:16:37.859Z,0.88
2022-07-26T08:19:16.645Z,0.98
2022-07-26T08:21:54.981Z,0.77
2022-07-26T08:24:33.800Z,0.85
2022-07-26T08:27:12.080Z,1.00
2022-07-26T08:29:50.189Z,1.70
2022-07-26T08:32:28.413Z,0.88
2022-07-26T08:35:16.863Z,1.00
2022-07-26T08:37:57.847Z,0.70
2022-07-26T08:40:36.039Z,1.55
2022-07-26T08:43:14.330Z,0.85
2022-07-26T08:45:54.382Z,1.20
2022-07-26T08:48:36.950Z,0.90
2022-07-26T08:51:22.108Z,1.15
2022-07-26T08:54:05.664Z,0.93
2022-07-26T08:56:53.508Z,0.90
2022-07-26T08:59:31.659Z,1.15
2022-07-26T09:02:13.518Z,0.85
2022-07-26T09:05:04.400Z,0.73
2022-07-26T09:07:43.266Z,1.30
2022-07-26T09:10:21.573Z,0.70
2022-07-26T09:12:59.675Z,0.63
2022-07-26T09:15:37.866Z,0.95
2022-07-26T09:18:30.069Z,1.02
2022-07-26T09:21:08.218Z,0.65
2022-07-26T09:23:46.283Z,0.70
2022-07-26T09:26:24.755Z,0.70
2022-07-26T09:29:05.467Z,0.77
2022-07-26T09:31:44.770Z,0.82
2022-07-26T09:34:26.996Z,0.80
2022-07-26T09:37:08.603Z,0.93
2022-07-26T09:40:02.062Z,0.93
2022-07-26T09:45:39.088Z,1.48
2022-07-26T09:48:36.641Z,1.25
2022-07-26T09:51:40.174Z,0.90
2022-07-26T09:54:35.656Z,1.23
2022-07-26T09:57:18.048Z,0.90
2022-07-26T09:59:56.518Z,2.10
2022-07-26T10:02:34.902Z,1.60
2022-07-26T10:05:13.177Z,0.90
2022-07-26T10:07:52.615Z,1.30
2022-07-26T10:10:39.357Z,0.98
2022-07-26T10:13:18.249Z,1.30
2022-07-26T10:15:56.972Z,0.90
2022-07-26T10:18:39.378Z,1.10
2022-07-26T10:21:31.065Z,1.45
2022-07-26T10:24:26.902Z,2.00
2022-07-26T10:27:04.723Z,1.40
2022-07-26T10:29:42.945Z,1.15
2022-07-26T10:32:21.618Z,1.30
2022-07-26T10:34:59.833Z,1.23
2022-07-26T10:37:37.954Z,1.00
2022-07-26T10:40:25.294Z,1.40
2022-07-26T10:46:17.955Z,1.40
2022-07-26T10:49:07.614Z,1.00
2022-07-26T10:51:45.880Z,0.90
2022-07-26T10:54:23.963Z,0.90
2022-07-26T10:57:02.030Z,0.80
2022-07-26T10:59:55.491Z,0.70
2022-07-26T11:02:35.977Z,0.77
2022-07-26T11:05:16.952Z,0.60
2022-07-26T11:08:06.375Z,0.70
2022-07-26T11:10:49.229Z,0.65
2022-07-26T11:13:29.074Z,0.95
2022-07-26T11:16:09.800Z,0.70
2022-07-26T11:18:48.138Z,1.35
2022-07-26T11:21:26.326Z,0.68
2022-07-26T11:24:05.903Z,1.75
2022-07-26T11:26:47.041Z,1.03
2022-07-26T11:29:35.658Z,0.77
2022-07-26T11:32:25.476Z,0.70
2022-07-26T11:35:06.869Z,0.90
2022-07-26T11:38:07.836Z,1.00
2022-07-26T11:40:49.529Z,0.80
2022-07-26T11:43:36.233Z,0.88
2022-07-26T11:46:14.729Z,0.93
2022-07-26T11:48:55.068Z,0.77
2022-07-26T11:54:11.741Z,0.93
2022-07-26T11:56:51.900Z,0.70
2022-07-26T11:59:35.076Z,1.40
2022-07-26T12:02:15.163Z,1.10
2022-07-26T12:05:21.623Z,0.90
2022-07-26T12:08:07.520Z,0.88
2022-07-26T12:10:55.097Z,0.85
2022-07-26T12:13:39.843Z,0.80
2022-07-26T12:16:46.423Z,0.90
2022-07-26T12:19:29.431Z,1.08
2022-07-26T12:22:19.927Z,0.98
2022-07-26T12:27:47.448Z,1.65
2022-07-26T12:30:30.694Z,0.98
2022-07-26T12:33:09.109Z,1.02
2022-07-26T12:35:47.270Z,1.00
2022-07-26T12:38:42.546Z,1.70
2022-07-26T12:41:40.993Z,1.20
2022-07-26T12:44:22.944Z,1.20
2022-07-26T12:47:01.218Z,0.95
2022-07-26T12:49:39.313Z,1.25
2022-07-26T12:52:20.041Z,1.30
2022-07-26T12:54:58.380Z,1.52
2022-07-26T12:57:37.060Z,1.25
2022-07-26T13:00:18.701Z,1.30
2022-07-26T13:02:58.104Z,1.15
2022-07-26T13:05:36.200Z,1.10
2022-07-26T13:08:14.303Z,1.15
2022-07-26T13:10:56.736Z,2.05
2022-07-26T13:13:37.879Z,1.92
2022-07-26T13:16:15.990Z,1.77
2022-07-26T13:18:54.121Z,2.10
2022-07-26T13:21:33.457Z,1.48
2022-07-26T13:24:12.323Z,1.40
2022-07-26T13:26:51.844Z,1.35
2022-07-26T13:29:30.766Z,1.75
2022-07-26T13:32:08.871Z,2.33
2022-07-26T13:34:47.025Z,2.35
2022-07-26T13:37:25.100Z,1.52
2022-07-26T13:40:03.290Z,1.85
2022-07-26T13:42:41.391Z,1.33
2022-07-26T13:45:19.616Z,1.33
2022-07-26T13:47:59.785Z,1.90
2022-07-26T13:53:17.157Z,1.45
2022-07-26T13:55:55.489Z,1.67
2022-07-26T13:58:33.664Z,1.48
2022-07-26T14:01:11.957Z,1.73
2022-07-26T14:03:50.077Z,1.45
2022-07-26T14:06:28.226Z,1.23
2022-07-26T14:09:10.574Z,1.17
2022-07-26T14:11:49.324Z,1.65
2022-07-26T14:14:27.464Z,1.48
2022-07-26T14:17:05.652Z,1.30
2022-07-26T14:19:46.820Z,1.77
2022-07-26T14:22:25.789Z,1.40
2022-07-26T14:25:04.333Z,1.70
2022-07-26T14:27:42.558Z,1.55
2022-07-26T14:30:22.576Z,1.58
2022-07-26T14:33:00.557Z,1.80
2022-07-26T14:35:38.653Z,1.70
2022-07-26T14:38:23.208Z,1.58
2022-07-26T14:41:04.069Z,1.77
2022-07-26T14:43:47.232Z,1.90
2022-07-26T14:46:24.326Z,1.92
2022-07-26T14:49:02.604Z,1.83
2022-07-26T14:51:40.947Z,1.40
2022-07-26T14:54:19.158Z,1.25
2022-07-26T14:56:57.324Z,1.33
2022-07-26T14:59:37.126Z,1.20
2022-07-26T15:02:15.363Z,1.05
2022-07-26T15:04:53.568Z,0.98
2022-07-26T15:07:31.688Z,1.20
2022-07-26T15:10:12.473Z,1.40
2022-07-26T15:12:50.585Z,0.95
2022-07-26T15:15:29.845Z,0.90
2022-07-26T15:18:08.200Z,1.27
2022-07-26T15:20:46.404Z,0.98
2022-07-26T15:23:26.524Z,0.75
2022-07-26T15:26:04.617Z,0.80
2022-07-26T15:28:42.879Z,0.80
2022-07-26T15:31:21.101Z,1.13
2022-07-26T15:33:59.204Z,0.77
2022-07-26T15:36:37.685Z,0.98
2022-07-26T15:39:17.598Z,0.70
2022-07-26T15:41:56.387Z,0.85
2022-07-26T15:44:37.124Z,0.75
2022-07-26T15:47:15.572Z,0.70
2022-07-26T15:50:12.141Z,0.93
2022-07-26T15:52:50.716Z,0.70
2022-07-26T15:55:29.061Z,0.80
2022-07-26T15:58:07.271Z,0.70
2022-07-26T16:00:45.441Z,1.02
2022-07-26T16:03:23.784Z,0.82
2022-07-26T16:06:05.826Z,0.77
2022-07-26T16:09:05.912Z,0.80
2022-07-26T16:11:42.588Z,0.88
2022-07-26T16:14:20.938Z,0.80
2022-07-26T16:16:59.152Z,0.85
2022-07-26T16:19:37.305Z,0.95
2022-07-26T16:22:15.403Z,0.60
2022-07-26T16:24:53.605Z,0.60
2022-07-26T16:27:31.676Z,0.52
2022-07-26T16:30:12.251Z,0.60
2022-07-26T16:32:50.329Z,0.90
2022-07-26T16:35:28.523Z,0.52
2022-07-26T16:38:07.213Z,0.60
2022-07-26T16:40:45.316Z,0.60
2022-07-26T16:43:23.381Z,0.90
2022-07-26T16:46:01.578Z,0.50
2022-07-26T16:48:39.717Z,0.98
2022-07-26T16:51:17.931Z,0.73
2022-07-26T16:53:55.985Z,0.95
2022-07-26T16:56:34.214Z,0.70
2022-07-26T16:59:12.551Z,0.70
2022-07-26T17:01:50.930Z,0.60
2022-07-26T17:04:29.155Z,1.10
2022-07-26T17:07:24.586Z,1.00
2022-07-26T17:10:07.259Z,0.90
2022-07-26T17:12:45.739Z,1.05
2022-07-26T17:15:25.478Z,0.93
2022-07-26T17:18:04.060Z,0.95
2022-07-26T17:20:42.184Z,0.80
2022-07-26T17:23:20.863Z,1.10
2022-07-26T17:25:58.974Z,1.00
2022-07-26T17:28:37.159Z,1.60
2022-07-26T17:31:16.672Z,1.33
2022-07-26T17:33:55.032Z,0.90
2022-07-26T17:36:33.547Z,0.98
2022-07-26T17:39:12.654Z,0.88
2022-07-26T17:41:54.563Z,1.00
2022-07-26T17:44:32.646Z,1.23
2022-07-26T17:47:28.245Z,1.20
2022-07-26T17:53:08.601Z,0.90
2022-07-26T17:55:46.989Z,0.98
2022-07-26T17:58:25.485Z,0.80
2022-07-26T18:01:03.732Z,0.82
2022-07-26T18:03:39.228Z,1.00
2022-07-26T18:06:18.768Z,1.10
2022-07-26T18:08:57.098Z,1.03
2022-07-26T18:11:38.843Z,0.90
2022-07-26T18:14:17.056Z,1.05
2022-07-26T18:16:56.931Z,0.95
2022-07-26T18:19:35.086Z,1.90
2022-07-26T18:22:13.211Z,2.00
2022-07-26T18:24:51.491Z,1.30
2022-07-26T18:27:29.701Z,0.77
2022-07-26T18:30:08.516Z,0.70
2022-07-26T18:32:46.838Z,1.20
2022-07-26T18:35:25.941Z,0.98
2022-07-26T18:38:04.791Z,0.70
2022-07-26T18:40:42.943Z,0.50
2022-07-26T18:43:21.372Z,0.40
2022-07-26T18:46:02.949Z,0.50
2022-07-26T18:48:44.236Z,0.50
2022-07-26T18:51:22.644Z,0.45
2022-07-26T18:54:05.110Z,1.33
2022-07-26T18:56:43.911Z,1.45
2022-07-26T18:59:22.622Z,0.73
2022-07-26T19:02:01.097Z,0.50
2022-07-26T19:04:39.372Z,0.40
2022-07-26T19:07:17.570Z,0.50
2022-07-26T19:09:58.577Z,0.57
2022-07-26T19:12:37.650Z,0.30
2022-07-26T19:15:17.357Z,0.32
2022-07-26T19:17:55.701Z,0.55
2022-07-26T19:20:34.155Z,0.50
2022-07-26T19:23:12.931Z,0.30
2022-07-26T19:25:51.387Z,0.50
2022-07-26T19:28:29.687Z,0.40
2022-07-26T19:31:07.941Z,0.50
2022-07-26T19:33:46.132Z,0.98
2022-07-26T19:36:26.043Z,0.60
2022-07-26T19:41:44.042Z,0.43
2022-07-26T19:44:22.374Z,0.60
2022-07-26T19:47:00.525Z,0.32
2022-07-26T19:49:38.689Z,0.65
2022-07-26T19:52:16.877Z,0.40
2022-07-26T19:54:55.267Z,1.10
2022-07-26T19:57:33.498Z,0.70
2022-07-26T20:00:12.704Z,0.65
2022-07-26T20:02:50.998Z,0.30
2022-07-26T20:05:29.209Z,0.43
2022-07-26T20:08:07.290Z,0.30
2022-07-26T20:10:45.453Z,0.47
2022-07-26T20:13:23.596Z,0.47
2022-07-26T20:16:01.736Z,0.40
2022-07-26T20:18:39.888Z,0.50
2022-07-26T20:21:18.525Z,0.40
2022-07-26T20:23:56.652Z,0.30
2022-07-26T20:26:35.095Z,0.60
2022-07-26T20:29:13.642Z,0.30
2022-07-26T20:31:52.093Z,0.47
2022-07-26T20:34:30.434Z,0.22
2022-07-26T20:37:08.621Z,0.40
2022-07-26T20:39:47.156Z,0.35
2022-07-26T20:42:26.381Z,0.30
2022-07-26T20:45:11.259Z,0.53
2022-07-26T20:47:53.222Z,0.28
2022-07-26T20:50:31.395Z,0.40
2022-07-26T20:53:09.691Z,0.38
2022-07-26T20:55:47.830Z,0.47
2022-07-26T20:58:26.064Z,0.30
2022-07-26T21:01:05.117Z,0.20
2022-07-26T21:03:43.456Z,0.43
2022-07-26T21:06:21.830Z,0.30
2022-07-26T21:09:00.227Z,0.50
2022-07-26T21:11:46.983Z,0.28
2022-07-26T21:14:25.147Z,0.40
2022-07-26T21:17:06.615Z,0.40
2022-07-26T21:19:47.571Z,0.45
2022-07-26T21:22:25.845Z,0.40
2022-07-26T21:25:04.454Z,0.43
2022-07-26T21:27:42.617Z,0.40
2022-07-26T21:30:20.740Z,0.30
2022-07-26T21:32:58.805Z,0.40
2022-07-26T21:35:36.885Z,0.30
2022-07-26T21:38:15.144Z,0.50
2022-07-26T21:40:53.304Z,0.30
2022-07-26T21:43:31.490Z,0.70
2022-07-26T21:46:12.723Z,0.63
2022-07-26T21:48:51.389Z,0.45
2022-07-26T21:51:29.637Z,0.47
2022-07-26T21:54:07.960Z,0.32
2022-07-26T21:56:46.287Z,0.45
2022-07-26T21:59:24.476Z,0.40
2022-07-26T22:02:02.673Z,0.40
2022-07-26T22:04:40.813Z,0.40
2022-07-26T22:07:21.902Z,0.70
2022-07-26T22:10:00.187Z,0.50
2022-07-26T22:12:38.257Z,0.32
2022-07-26T22:15:16.461Z,0.45
2022-07-26T22:17:55.187Z,0.40
2022-07-26T22:20:35.381Z,0.50
2022-07-26T22:23:14.137Z,0.52
2022-07-26T22:25:52.399Z,0.47
2022-07-26T22:28:33.374Z,0.43
2022-07-26T22:31:11.553Z,0.50
2022-07-26T22:33:49.874Z,0.50
2022-07-26T22:36:28.237Z,0.45
2022-07-26T22:39:06.396Z,0.57
2022-07-26T22:42:13.885Z,0.30
2022-07-26T22:44:45.485Z,0.40
2022-07-26T22:47:23.827Z,0.50
2022-07-26T22:50:01.925Z,0.40
2022-07-26T22:52:41.941Z,0.47
2022-07-26T22:55:20.653Z,0.40
2022-07-26T22:57:59.318Z,0.40
2022-07-26T23:00:37.721Z,0.40
2022-07-26T23:03:19.670Z,0.57
2022-07-26T23:05:58.609Z,0.63
2022-07-26T23:08:47.183Z,0.45
2022-07-26T23:11:25.804Z,0.50
2022-07-26T23:14:04.374Z,0.40
2022-07-26T23:16:42.721Z,0.40
2022-07-26T23:19:21.052Z,0.90
2022-07-26T23:21:59.198Z,0.57
2022-07-26T23:24:37.399Z,0.50
2022-07-26T23:27:20.302Z,0.60
2022-07-26T23:29:58.608Z,0.57
2022-07-26T23:32:36.749Z,0.50
2022-07-26T23:35:14.816Z,0.60
2022-07-26T23:37:52.903Z,0.32
2022-07-26T23:40:31.144Z,0.50
2022-07-26T23:43:09.268Z,0.65
2022-07-26T23:45:47.329Z,0.55
2022-07-26T23:48:25.580Z,0.40
2022-07-26T23:51:03.962Z,0.57
2022-07-26T23:53:42.519Z,0.50
2022-07-26T23:56:21.246Z,0.50
2022-07-26T23:58:59.484Z,0.90
